Time;durP1;ratioP1;P1;durP2;ratioP2;P2;SDS_P1;SDS_P2;PMS_P1;PMS_P2;Temp;Humidity;BMP_temperature;BMP_pressure;BME280_temperature;BME280_humidity;BME280_pressure;Samples;Min_cycle;Max_cycle;Signal;HPM_P1;HPM_P2
2023/04/06 06:59:49;;;;;;;20.00;8.60;;;;;;;5.72;51.60;101213.44;5106601;27;20186;-50
2023/04/06 07:02:20;;;;;;;18.25;8.82;;;;;;;5.81;51.33;101211.13;5077547;28;20537;-49
2023/04/06 07:04:49;;;;;;;20.92;8.98;;;;;;;5.83;50.88;101211.84;5078049;28;20048;-51
2023/04/06 07:07:16;;;;;;;18.80;8.98;;;;;;;5.60;50.92;101210.88;5090201;28;20032;-43
2023/04/06 07:09:43;;;;;;;17.25;8.73;;;;;;;5.81;52.45;101214.59;5094805;28;20113;-44
2023/04/06 07:12:10;;;;;;;20.13;9.07;;;;;;;5.92;51.00;101214.63;5086409;28;20127;-43
2023/04/06 07:14:37;;;;;;;23.05;8.95;;;;;;;6.19;50.84;101210.13;5104816;28;20127;-43
2023/04/06 07:17:04;;;;;;;19.50;8.82;;;;;;;6.28;50.10;101215.53;5074058;28;20082;-44
2023/04/06 07:19:31;;;;;;;20.98;8.52;;;;;;;6.28;50.98;101201.53;5091434;28;20036;-43
2023/04/06 07:21:58;;;;;;;19.05;8.77;;;;;;;6.33;50.30;101200.25;5089345;28;20063;-44
2023/04/06 07:24:26;;;;;;;23.08;8.65;;;;;;;6.46;50.95;101202.78;5097955;28;20110;-44
2023/04/06 07:26:53;;;;;;;17.40;8.48;;;;;;;6.56;49.97;101197.66;5086536;28;20059;-44
2023/04/06 07:29:19;;;;;;;21.30;9.02;;;;;;;6.61;50.22;101194.66;5098878;28;20039;-44
2023/04/06 07:31:46;;;;;;;17.17;8.88;;;;;;;6.73;50.76;101202.47;5095247;28;20646;-51
2023/04/06 07:34:15;;;;;;;22.80;8.85;;;;;;;6.94;49.79;101201.78;5100267;28;20048;-51
2023/04/06 07:36:41;;;;;;;33.75;9.38;;;;;;;7.08;49.66;101198.06;5105143;28;20059;-53
2023/04/06 07:39:09;;;;;;;23.63;8.73;;;;;;;7.07;49.99;101197.22;5088830;28;20036;-52
2023/04/06 07:41:36;;;;;;;16.75;9.25;;;;;;;7.08;50.17;101190.16;5077535;28;20205;-53
2023/04/06 07:44:04;;;;;;;17.38;9.00;;;;;;;7.24;49.40;101190.63;5088806;28;20097;-45
2023/04/06 07:46:31;;;;;;;18.92;9.63;;;;;;;7.42;49.89;101198.03;5091818;28;20044;-51
2023/04/06 07:48:59;;;;;;;17.48;8.90;;;;;;;7.49;48.99;101197.44;5096665;28;20127;-51
2023/04/06 07:51:28;;;;;;;18.58;8.60;;;;;;;7.60;48.63;101183.34;5097205;28;20101;-50
2023/04/06 07:53:55;;;;;;;17.25;8.90;;;;;;;7.68;48.02;101186.22;5079702;28;20044;-52
2023/04/06 07:56:22;;;;;;;22.20;9.55;;;;;;;7.91;47.96;101193.22;5088225;28;20630;-51
2023/04/06 07:58:49;;;;;;;18.95;9.57;;;;;;;7.63;47.84;101187.56;5086333;28;20049;-50
2023/04/06 08:01:17;;;;;;;18.63;9.63;;;;;;;7.71;46.21;101187.75;5058096;28;20397;-52
2023/04/06 08:03:44;;;;;;;18.02;9.32;;;;;;;7.40;47.51;101194.66;5072030;28;20064;-51
2023/04/06 08:06:11;;;;;;;18.48;9.57;;;;;;;7.62;47.45;101185.88;5065345;28;20127;-53
2023/04/06 08:08:38;;;;;;;24.00;9.02;;;;;;;7.44;46.16;101204.88;5076980;28;20098;-50
2023/04/06 08:11:05;;;;;;;19.85;9.52;;;;;;;7.61;47.88;101189.50;5074386;28;20083;-50
2023/04/06 08:13:31;;;;;;;22.33;9.90;;;;;;;7.61;47.92;101182.41;5056794;28;20041;-53
2023/04/06 08:15:59;;;;;;;17.35;9.32;;;;;;;7.59;47.58;101186.97;5068142;28;20043;-52
2023/04/06 08:18:26;;;;;;;19.42;9.30;;;;;;;8.03;47.19;101184.31;5054093;28;20043;-52
2023/04/06 08:20:54;;;;;;;17.95;9.45;;;;;;;8.02;47.66;101185.25;5064763;28;20079;-50
2023/04/06 08:23:21;;;;;;;18.95;9.75;;;;;;;8.07;48.33;101183.06;5033445;28;20051;-53
2023/04/06 08:25:48;;;;;;;21.23;9.75;;;;;;;8.23;46.76;101182.66;5030843;28;20457;-44
2023/04/06 08:28:15;;;;;;;26.23;11.13;;;;;;;8.18;47.65;101190.94;5060707;28;20036;-44
2023/04/06 08:30:42;;;;;;;25.85;10.30;;;;;;;8.22;47.17;101191.53;5068948;28;20083;-44
2023/04/06 08:33:10;;;;;;;25.30;9.95;;;;;;;8.34;46.56;101182.59;5049711;28;20103;-44
2023/04/06 08:35:36;;;;;;;22.50;10.68;;;;;;;8.36;46.19;101183.28;5057720;28;20063;-45
2023/04/06 08:38:03;;;;;;;22.30;10.40;;;;;;;8.54;47.00;101180.94;5070291;28;20045;-44
2023/04/06 08:40:35;;;;;;;23.95;11.05;;;;;;;8.67;47.26;101195.78;5048796;28;20304;-43
2023/04/06 08:43:03;;;;;;;;;;;;;;;8.92;46.96;101190.03;5072035;28;20057;-44
2023/04/06 08:45:30;;;;;;;21.95;10.43;;;;;;;9.26;45.71;101180.97;5063040;28;20367;-43
2023/04/06 08:47:58;;;;;;;21.35;10.70;;;;;;;9.54;45.58;101184.69;5036317;28;20033;-49
2023/04/06 08:50:26;;;;;;;23.25;10.32;;;;;;;9.86;45.82;101173.00;5059727;28;20137;-50
2023/04/06 08:52:53;;;;;;;25.63;11.23;;;;;;;10.09;44.27;101170.91;5068838;28;20478;-51
2023/04/06 08:55:20;;;;;;;18.88;10.05;;;;;;;10.23;43.70;101177.59;5054822;28;20106;-49
2023/04/06 08:57:47;;;;;;;22.67;10.90;;;;;;;10.19;43.81;101171.75;5062572;28;20600;-51
2023/04/06 09:00:16;;;;;;;21.45;11.38;;;;;;;10.09;44.15;101171.75;5072006;28;20044;-49
2023/04/06 09:02:45;;;;;;;23.25;11.35;;;;;;;10.23;44.72;101167.84;5055723;28;20043;-50
2023/04/06 09:05:13;;;;;;;23.45;11.43;;;;;;;10.37;44.51;101164.78;5035532;28;20045;-46
2023/04/06 09:07:40;;;;;;;24.75;11.98;;;;;;;10.66;43.90;101170.97;5049330;28;20324;-45
2023/04/06 09:10:07;;;;;;;24.45;12.20;;;;;;;10.56;43.21;101174.50;5068717;28;20041;-44
2023/04/06 09:12:35;;;;;;;22.48;11.73;;;;;;;10.57;43.13;101176.19;5070761;28;20143;-44
2023/04/06 09:15:02;;;;;;;24.45;12.50;;;;;;;10.91;41.65;101175.66;5052364;28;20106;-44
2023/04/06 09:17:33;;;;;;;21.42;11.82;;;;;;;10.85;41.71;101173.56;5072986;28;20056;-44
2023/04/06 09:20:02;;;;;;;24.33;12.03;;;;;;;10.99;41.87;101172.28;5054324;28;20067;-44
2023/04/06 09:22:38;;;;;;;27.27;12.32;;;;;;;10.97;41.88;101174.25;5052803;28;20045;-44
2023/04/06 09:25:06;;;;;;;24.67;11.68;;;;;;;10.92;41.79;101173.84;5046541;28;20275;-44
2023/04/06 09:27:35;;;;;;;20.90;11.23;;;;;;;10.94;41.60;101169.22;5045880;28;20064;-52
2023/04/06 09:30:07;;;;;;;32.92;16.63;;;;;;;11.36;41.03;101167.91;5056075;28;20049;-50
2023/04/06 09:32:45;;;;;;;;;;;;;;;11.52;39.81;101168.09;5062707;28;20136;-53
2023/04/06 09:35:12;;;;;;;20.98;10.90;;;;;;;11.59;40.57;101165.66;5046039;28;19930;-51
2023/04/06 09:37:39;;;;;;;22.58;11.43;;;;;;;11.88;40.25;101166.28;5062776;28;20056;-51
2023/04/06 09:40:07;;;;;;;28.95;11.75;;;;;;;11.64;40.28;101160.72;5042932;28;20044;-51
2023/04/06 09:42:35;;;;;;;25.70;11.38;;;;;;;12.18;40.32;101158.91;5072714;28;20052;-51
2023/04/06 09:45:02;;;;;;;23.75;11.95;;;;;;;12.56;39.61;101150.69;5051007;28;20253;-52
2023/04/06 09:47:32;;;;;;;23.17;12.07;;;;;;;12.85;38.60;101148.53;5069333;28;20060;-53
2023/04/06 09:50:00;;;;;;;23.10;12.45;;;;;;;13.33;37.58;101156.91;5073030;28;20036;-50
2023/04/06 09:52:33;;;;;;;28.42;12.15;;;;;;;13.42;37.58;101145.28;5067952;28;20456;-50
2023/04/06 09:55:04;;;;;;;24.27;12.20;;;;;;;14.00;36.39;101150.69;5063973;28;20043;-52
2023/04/06 09:57:37;;;;;;;24.38;13.20;;;;;;;13.80;35.57;101150.16;5058999;28;20041;-52
2023/04/06 10:00:11;;;;;;;28.02;13.20;;;;;;;13.80;36.29;101151.00;5057261;28;20040;-50
2023/04/06 10:03:05;;;;;;;26.05;13.10;;;;;;;13.76;37.32;101147.00;5071052;28;20044;-52
2023/04/06 10:05:59;;;;;;;24.02;12.45;;;;;;;13.81;37.41;101149.19;5079449;28;20408;-51
2023/04/06 10:08:28;;;;;;;26.05;12.90;;;;;;;13.79;37.63;101156.53;5060514;28;20052;-44
2023/04/06 10:10:56;;;;;;;23.85;12.60;;;;;;;13.86;36.50;101152.19;5072865;28;20052;-46
2023/04/06 10:13:24;;;;;;;23.92;12.50;;;;;;;13.87;37.16;101156.50;5074584;28;20051;-47
2023/04/06 10:15:52;;;;;;;27.98;12.65;;;;;;;13.60;37.78;101146.97;5080773;28;20055;-47
2023/04/06 10:18:20;;;;;;;31.25;13.25;;;;;;;13.73;36.40;101149.16;5074628;28;20056;-48
2023/04/06 10:20:57;;;;;;;25.25;13.68;;;;;;;13.67;37.70;101153.31;5082718;28;20064;-45
2023/04/06 10:23:31;;;;;;;26.38;13.82;;;;;;;13.57;36.87;101158.81;5059551;28;20489;-48
2023/04/06 10:25:59;;;;;;;26.92;13.48;;;;;;;13.83;37.72;101152.50;5079768;28;20393;-46
2023/04/06 10:28:31;;;;;;;30.77;14.20;;;;;;;13.92;36.88;101153.34;5057586;28;20078;-48
2023/04/06 10:30:59;;;;;;;32.25;13.88;;;;;;;14.07;37.06;101154.34;5081611;28;20040;-47
2023/04/06 10:33:27;;;;;;;31.45;14.20;;;;;;;14.31;36.54;101150.00;5068695;28;20513;-46
2023/04/06 10:35:55;;;;;;;27.60;13.88;;;;;;;14.37;36.18;101150.16;5081248;28;20444;-46
2023/04/06 10:38:38;;;;;;;23.77;13.48;;;;;;;14.52;36.12;101144.97;5068703;28;20059;-46
2023/04/06 10:41:08;;;;;;;24.42;12.95;;;;;;;14.94;35.95;101146.53;5063177;28;20044;-48
2023/04/06 10:43:37;;;;;;;28.13;13.88;;;;;;;14.89;35.39;101143.53;5075208;28;20129;-46
2023/04/06 10:46:06;;;;;;;27.67;13.48;;;;;;;15.34;35.55;101134.00;5081032;28;20052;-45
2023/04/06 10:48:49;;;;;;;28.90;13.13;;;;;;;15.00;34.65;101137.00;5063137;28;20048;-47
2023/04/06 10:51:18;;;;;;;28.33;12.73;;;;;;;14.53;35.19;101149.28;5064523;28;20506;-46
2023/04/06 10:53:47;;;;;;;25.20;12.65;;;;;;;14.53;36.16;101143.94;5066688;28;20058;-53
2023/04/06 10:56:15;;;;;;;24.95;12.80;;;;;;;14.71;36.72;101142.94;5053884;28;20044;-46
2023/04/06 10:58:47;;;;;;;31.13;12.02;;;;;;;14.33;35.85;101142.66;5067599;28;20061;-47
2023/04/06 11:01:16;;;;;;;25.70;12.82;;;;;;;14.07;36.68;101133.00;5056798;28;20132;-47
2023/04/06 11:03:47;;;;;;;28.63;12.40;;;;;;;13.78;37.99;101128.19;5044127;28;20128;-46
2023/04/06 11:06:20;;;;;;;24.80;12.02;;;;;;;13.11;38.47;101129.00;5034327;28;20040;-46
2023/04/06 11:08:47;;;;;;;30.45;12.48;;;;;;;13.09;39.03;101130.97;5059984;28;20059;-45
2023/04/06 11:11:17;;;;;;;30.85;12.95;;;;;;;13.06;39.83;101128.63;5053535;28;20044;-52
2023/04/06 11:13:48;;;;;;;30.23;13.10;;;;;;;12.65;39.68;101134.63;5054506;28;20628;-52
2023/04/06 11:16:17;;;;;;;30.25;12.93;;;;;;;12.94;40.69;101144.09;5061280;28;20356;-50
2023/04/06 11:19:05;;;;;;;31.67;13.10;;;;;;;12.97;41.56;101140.25;5047686;28;20063;-51
2023/04/06 11:21:36;;;;;;;24.23;12.60;;;;;;;12.50;41.97;101133.53;5058912;28;20053;-51
2023/04/06 11:24:05;;;;;;;29.67;13.38;;;;;;;12.61;42.12;101138.59;5062509;28;20062;-53
2023/04/06 11:26:37;;;;;;;27.15;13.50;;;;;;;12.42;43.25;101125.50;5058690;28;20045;-52
2023/04/06 11:29:04;;;;;;;26.58;12.40;;;;;;;12.46;42.38;101133.03;5063596;28;20077;-53
2023/04/06 11:31:31;;;;;;;29.17;13.68;;;;;;;12.62;41.55;101132.25;5057755;28;20103;-52
2023/04/06 11:33:58;;;;;;;24.17;12.57;;;;;;;12.75;41.26;101131.84;5051727;28;20045;-54
2023/04/06 11:36:29;;;;;;;28.80;12.70;;;;;;;12.99;40.89;101139.13;5044356;28;20051;-51
2023/04/06 11:38:56;;;;;;;30.45;13.40;;;;;;;13.05;40.34;101134.97;5049817;28;20052;-51
2023/04/06 11:41:25;;;;;;;29.95;12.65;;;;;;;12.97;42.89;101126.94;5036373;28;20094;-45
2023/04/06 11:43:55;;;;;;;25.67;12.77;;;;;;;12.70;41.64;101130.63;5046924;28;20059;-46
2023/04/06 11:46:22;;;;;;;28.00;13.18;;;;;;;12.63;42.10;101125.13;5063256;28;20091;-46
2023/04/06 11:48:50;;;;;;;29.25;12.88;;;;;;;12.81;41.60;101112.56;5050458;28;20487;-45
2023/04/06 11:51:24;;;;;;;27.30;12.10;;;;;;;12.91;41.39;101116.94;5069896;28;20107;-45
2023/04/06 11:53:50;;;;;;;27.35;12.55;;;;;;;12.93;41.44;101112.28;5069825;28;20037;-47
2023/04/06 11:56:32;;;;;;;28.42;12.45;;;;;;;13.19;42.78;101113.06;5053474;28;20052;-46
2023/04/06 11:58:59;;;;;;;;;;;;;;;13.18;41.88;101113.22;5060114;28;20142;-48
2023/04/06 12:01:26;;;;;;;26.02;12.25;;;;;;;13.23;43.12;101110.91;5061062;28;19927;-48
2023/04/06 12:03:53;;;;;;;26.63;11.75;;;;;;;13.24;43.35;101118.72;5048502;28;20040;-47
2023/04/06 12:06:23;;;;;;;30.05;12.60;;;;;;;13.37;42.53;101115.63;5063604;28;20120;-48
2023/04/06 12:08:50;;;;;;;25.92;12.07;;;;;;;13.00;43.52;101113.31;5044469;28;20641;-46
2023/04/06 12:11:16;;;;;;;27.20;12.43;;;;;;;13.25;43.80;101108.91;5069757;28;20041;-47
2023/04/06 12:13:43;;;;;;;24.75;12.65;;;;;;;13.25;43.07;101108.91;5039570;28;20049;-47
2023/04/06 12:16:10;;;;;;;25.00;11.85;;;;;;;13.23;43.31;101101.06;5061269;28;20090;-47
2023/04/06 12:18:37;;;;;;;33.15;12.25;;;;;;;13.16;42.13;101102.72;5062802;28;20449;-47
2023/04/06 12:21:05;;;;;;;26.63;12.02;;;;;;;12.97;42.70;101105.63;5058181;28;20139;-48
2023/04/06 12:23:32;;;;;;;28.75;11.65;;;;;;;13.23;42.28;101101.06;5053815;28;20127;-52
2023/04/06 12:25:58;;;;;;;24.20;11.95;;;;;;;13.21;41.57;101104.91;5057120;28;20041;-51
2023/04/06 12:28:26;;;;;;;29.05;11.63;;;;;;;13.21;40.81;101104.91;5063392;28;20064;-53
2023/04/06 12:30:54;;;;;;;28.80;11.02;;;;;;;13.24;40.84;101107.22;5059201;28;20573;-51
2023/04/06 12:33:21;;;;;;;25.45;11.75;;;;;;;13.11;41.71;101113.00;5051964;28;20053;-48
2023/04/06 12:35:47;;;;;;;23.27;10.93;;;;;;;13.22;40.11;101106.56;5059929;28;20044;-46
2023/04/06 12:38:15;;;;;;;26.92;11.23;;;;;;;13.51;40.89;101102.66;5065211;28;20045;-47
2023/04/06 12:40:42;;;;;;;23.48;9.57;;;;;;;13.60;39.52;101105.16;5063313;28;20390;-48
2023/04/06 12:43:09;;;;;;;22.55;9.68;;;;;;;13.37;40.00;101107.63;5058132;28;20710;-45
2023/04/06 12:45:36;;;;;;;18.33;8.95;;;;;;;13.09;41.45;101104.34;5063111;28;20041;-46
2023/04/06 12:48:03;;;;;;;21.02;9.57;;;;;;;12.97;41.96;101111.81;5044105;28;20037;-44
2023/04/06 12:50:30;;;;;;;22.08;9.90;;;;;;;12.63;42.86;101112.66;5062172;28;20047;-44
2023/04/06 12:52:56;;;;;;;22.98;10.05;;;;;;;12.42;43.24;101104.22;5065099;28;20045;-46
2023/04/06 12:55:23;;;;;;;20.05;9.48;;;;;;;12.48;43.68;101104.44;5059025;28;20094;-44
2023/04/06 12:57:50;;;;;;;22.92;9.32;;;;;;;12.44;44.30;101111.06;5067050;28;20083;-44
2023/04/06 13:00:17;;;;;;;20.85;10.45;;;;;;;12.39;43.79;101101.88;5056028;28;20444;-46
2023/04/06 13:02:46;;;;;;;19.60;9.25;;;;;;;12.32;44.10;101103.50;5043638;28;20057;-45
2023/04/06 13:05:18;;;;;;;22.30;10.27;;;;;;;12.23;45.26;101099.94;5037450;28;20051;-44
2023/04/06 13:07:46;;;;;;;20.88;9.80;;;;;;;12.43;44.58;101103.22;5062843;28;20156;-45
2023/04/06 13:10:13;;;;;;;21.67;9.70;;;;;;;12.24;45.36;101098.94;5061080;28;20045;-44
2023/04/06 13:12:40;;;;;;;17.77;9.40;;;;;;;12.16;44.73;101097.06;5056245;28;20045;-44
2023/04/06 13:15:07;;;;;;;19.02;9.45;;;;;;;12.23;47.54;101105.28;5055129;28;20040;-43
2023/04/06 13:17:34;;;;;;;18.00;9.65;;;;;;;12.29;48.14;101107.28;5041076;28;20153;-45
2023/04/06 13:20:01;;;;;;;19.65;9.70;;;;;;;12.45;47.99;101102.06;5065651;28;20051;-44
2023/04/06 13:22:28;;;;;;;21.63;9.48;;;;;;;12.35;47.93;101101.38;5034245;28;20423;-43
2023/04/06 13:24:54;;;;;;;20.92;9.68;;;;;;;12.35;48.95;101111.16;5061743;28;20048;-42
2023/04/06 13:27:21;;;;;;;20.85;9.77;;;;;;;12.19;50.17;101107.41;5065803;28;20485;-43
2023/04/06 13:29:48;;;;;;;18.20;9.23;;;;;;;11.92;50.41;101108.34;5046963;28;20033;-43
2023/04/06 13:32:15;;;;;;;18.75;8.63;;;;;;;11.88;50.93;101091.84;5047859;28;20049;-42
2023/04/06 13:34:44;;;;;;;17.92;7.53;;;;;;;11.62;50.83;101102.41;5056586;28;20050;-46
2023/04/06 13:37:13;;;;;;;17.17;8.52;;;;;;;11.52;52.49;101096.34;5064660;28;20091;-46
2023/04/06 13:39:39;;;;;;;17.63;7.72;;;;;;;11.50;53.75;101099.16;5042492;28;20036;-44
2023/04/06 13:42:06;;;;;;;17.05;7.97;;;;;;;11.58;53.79;101100.22;5063471;28;20045;-45
2023/04/06 13:44:33;;;;;;;16.98;8.32;;;;;;;11.58;54.06;101093.06;5052936;28;20123;-44
2023/04/06 13:47:00;;;;;;;19.00;7.90;;;;;;;11.70;53.66;101101.66;5056955;28;20051;-45
2023/04/06 13:49:26;;;;;;;17.45;7.63;;;;;;;11.52;54.65;101091.03;5050972;28;20040;-44
2023/04/06 13:51:53;;;;;;;14.73;7.13;;;;;;;11.43;55.49;101097.25;5047850;28;20600;-50
2023/04/06 13:54:20;;;;;;;16.33;7.60;;;;;;;11.10;57.23;101095.09;5045430;28;20048;-45
2023/04/06 13:56:47;;;;;;;15.25;7.75;;;;;;;11.39;57.95;101087.91;5056078;28;20493;-45
2023/04/06 13:59:13;;;;;;;15.70;7.82;;;;;;;11.33;55.67;101100.81;5058444;28;20093;-45
2023/04/06 14:01:40;;;;;;;15.40;7.82;;;;;;;11.30;54.58;101097.63;5088311;28;20100;-44
2023/04/06 14:04:07;;;;;;;15.25;7.88;;;;;;;11.48;53.82;101095.81;5104047;28;20047;-46
2023/04/06 14:06:34;;;;;;;14.40;7.55;;;;;;;11.44;55.67;101090.94;5077637;28;20513;-48
2023/04/06 14:09:01;;;;;;;16.20;8.05;;;;;;;11.49;56.90;101089.50;5079187;28;20048;-49
2023/04/06 14:11:28;;;;;;;21.75;8.80;;;;;;;11.53;57.30;101090.91;5081853;28;20044;-51
2023/04/06 14:13:55;;;;;;;15.35;8.00;;;;;;;11.42;56.09;101084.94;5084053;28;20043;-49
2023/04/06 14:16:23;;;;;;;18.67;8.02;;;;;;;11.41;56.85;101081.47;5094169;28;20421;-50
2023/04/06 14:18:51;;;;;;;17.40;8.38;;;;;;;11.31;58.92;101081.56;5071736;28;20050;-46
2023/04/06 14:21:18;;;;;;;16.20;8.60;;;;;;;10.90;58.42;101080.25;5096722;28;20054;-45
2023/04/06 14:23:45;;;;;;;16.25;7.55;;;;;;;10.76;60.95;101089.53;5074045;28;20074;-45
2023/04/06 14:26:12;;;;;;;19.02;7.90;;;;;;;10.60;61.06;101084.84;5080966;28;20142;-45
2023/04/06 14:28:39;;;;;;;16.73;8.02;;;;;;;10.41;62.49;101079.63;5090155;28;20480;-46
2023/04/06 14:31:12;;;;;;;18.70;7.78;;;;;;;10.44;60.50;101081.97;5099568;28;20107;-45
2023/04/06 14:33:39;;;;;;;16.58;8.02;;;;;;;10.43;60.90;101077.66;5075313;28;20784;-45
2023/04/06 14:36:07;;;;;;;15.75;7.85;;;;;;;10.18;61.32;101086.06;5106290;28;20055;-46
2023/04/06 14:38:35;;;;;;;17.38;8.32;;;;;;;9.98;62.69;101079.97;5067511;28;20052;-46
2023/04/06 14:41:01;;;;;;;18.27;8.80;;;;;;;9.89;65.81;101078.16;5080308;28;20577;-44
2023/04/06 14:43:28;;;;;;;17.10;8.85;;;;;;;9.89;66.12;101086.09;5098649;28;20441;-44
2023/04/06 14:45:59;;;;;;;16.65;8.60;;;;;;;9.90;68.91;101081.66;5070097;28;20044;-44
2023/04/06 14:48:26;;;;;;;18.92;8.38;;;;;;;9.92;68.71;101077.06;5101736;28;20097;-46
2023/04/06 14:50:54;;;;;;;17.67;8.38;;;;;;;9.77;71.66;101079.31;5092997;28;20775;-46
2023/04/06 14:53:23;;;;;;;16.55;8.38;;;;;;;9.72;70.75;101076.22;5080484;28;20047;-47
2023/04/06 14:55:51;;;;;;;17.40;7.60;;;;;;;9.74;71.23;101083.06;5094516;28;20048;-45
2023/04/06 14:58:19;;;;;;;13.55;6.93;;;;;;;9.82;72.89;101077.03;5096663;28;20404;-44
2023/04/06 15:00:46;;;;;;;15.60;8.32;;;;;;;9.53;74.19;101072.63;5073343;28;20055;-45
2023/04/06 15:03:13;;;;;;;17.10;7.45;;;;;;;9.65;72.23;101075.13;5095406;28;20043;-46
2023/04/06 15:05:41;;;;;;;15.90;7.63;;;;;;;9.53;75.31;101061.16;5074922;28;20059;-46
2023/04/06 15:08:09;;;;;;;16.63;8.65;;;;;;;9.62;80.09;101062.97;5086818;28;20036;-45
2023/04/06 15:10:37;;;;;;;16.73;8.38;;;;;;;9.67;81.40;101068.69;5096597;28;20181;-45
2023/04/06 15:13:03;;;;;;;18.42;8.35;;;;;;;9.57;80.27;101066.06;5089701;28;20354;-45
2023/04/06 15:15:30;;;;;;;14.88;7.88;;;;;;;9.57;80.43;101063.41;5087780;28;20133;-45
2023/04/06 15:17:57;;;;;;;16.92;7.85;;;;;;;9.79;79.60;101061.44;5096291;28;20132;-45
2023/04/06 15:20:23;;;;;;;14.82;7.53;;;;;;;9.61;79.43;101064.78;5100278;28;20720;-45
2023/04/06 15:22:50;;;;;;;13.20;7.15;;;;;;;9.55;79.79;101059.22;5089748;28;20048;-46
2023/04/06 15:25:17;;;;;;;15.57;7.63;;;;;;;9.60;80.87;101056.97;5103963;27;20054;-45
2023/04/06 15:27:44;;;;;;;18.40;8.13;;;;;;;9.49;82.11;101055.31;5089328;28;20040;-45
2023/04/06 15:30:10;;;;;;;15.68;8.00;;;;;;;9.54;82.44;101058.38;5095540;28;20073;-45
2023/04/06 15:32:37;;;;;;;16.50;7.65;;;;;;;9.51;85.15;101058.66;5101394;28;20527;-46
2023/04/06 15:35:10;;;;;;;17.30;7.97;;;;;;;9.57;85.21;101055.47;5079403;28;20051;-51
2023/04/06 15:37:38;;;;;;;17.88;7.88;;;;;;;9.57;85.42;101063.41;5105077;28;20046;-51
2023/04/06 15:40:05;;;;;;;15.88;8.27;;;;;;;9.43;87.05;101055.88;5092782;28;20131;-50
2023/04/06 15:42:32;;;;;;;18.50;8.23;;;;;;;9.40;87.88;101058.78;5101173;28;20035;-52
